Canyonlands National Park, UT

6:16 AM MDT on September 26, 2016 (GMT -0600)
Moab | | Change Station

Elev 4239 ft 38.55 °N, 109.52 °W | Updated 19 minutes ago

Clear
Clear
44.3 °F
Feels Like 44 °F
N
0.0
Wind Variable Wind from East
Gusts 0.0 mph

Today
High -- | Low -- °F
--% Chance of Precip.
Yesterday
High -- | Low -- °F
Precip. -- in
Pressure 30.29 in
Visibility 10.0 miles
Clouds Clear
Windchill 44 °F
Dew Point 35 °F
Humidity 69%
Rainfall 0.00 in
Snow Depth Not available.
7:09 AM 7:07 PM
Waning Crescent, 19% visible
METAR KCNY 261153Z AUTO 00000KT 10SM CLR 07/02 A3037 RMK AO2 SLP255 T00670022 10139 20067 53001
Pressure 30.29 in
Visibility 10.0 miles
Clouds Clear
Windchill 44 °F
Dew Point 35 °F
Humidity 69%
Rainfall 0.00 in
Snow Depth Not available.
7:09 AM 7:07 PM
Waning Crescent, 19% visible
METAR KCNY 261153Z AUTO 00000KT 10SM CLR 07/02 A3037 RMK AO2 SLP255 T00670022 10139 20067 53001

10-Day Weather Forecast

Almanac

Astronomy

Sep. 26, 2016 Rise Set
Actual Time
Civil Twilight
Nautical Twilight
Astronomical Twilight
Moon
Length of Visible Light
Length of Day
Tomorrow will be .
, % of the Moon is Illuminated

Today's Extremes

State Highs State Lows

Community

WunderPhotos

Upload Photos

1,941,863 photos uploaded!

WunderBlog® & News

Nearby

Air Quality

  Air Quality AQ Index Pollutant
Not available.

Snow Depth

Station Depth Elevation

Earthquake Activity

City Distance Mag. Time & Date
Minimum magnitude displayed is 2.5.

Coastal Water Temperatures

Place Temperature

Stations

Nearby Weather Stations

Station Location Temp. Windchill Dew Point Humidity Wind Precip. Elev Updated Type
                   

Watches & Warnings

There are currently no watches in effect.